Time;durP1;ratioP1;P1;durP2;ratioP2;P2;SDS_P1;SDS_P2;PMS_P1;PMS_P2;Temp;Humidity;BMP_temperature;BMP_pressure;BME280_temperature;BME280_humidity;BME280_pressure;Samples;Min_cycle;Max_cycle;Signal;HPM_P1;HPM_P2
2023/05/28 00:00:37;;;;;;;4.90;3.28;;;;;;;17.91;28.06;101576.16;5004096;28;20042;-70
2023/05/28 00:03:06;;;;;;;6.43;3.33;;;;;;;17.89;27.99;101571.81;5003689;28;20048;-70
2023/05/28 00:05:34;;;;;;;4.78;3.40;;;;;;;17.86;28.15;101573.00;5006416;28;20471;-70
2023/05/28 00:08:02;;;;;;;7.80;3.55;;;;;;;17.82;28.41;101576.25;5009145;28;20138;-70
2023/05/28 00:10:30;;;;;;;5.35;3.30;;;;;;;17.78;27.91;101564.66;5000673;28;20050;-70
2023/05/28 00:12:59;;;;;;;5.50;3.47;;;;;;;17.76;28.52;101572.25;4997165;28;20065;-70
2023/05/28 00:15:28;;;;;;;7.20;3.88;;;;;;;17.70;28.32;101568.22;5004740;28;20068;-70
2023/05/28 00:17:56;;;;;;;6.07;3.65;;;;;;;17.67;28.77;101564.91;5007380;28;20042;-70
2023/05/28 00:20:25;;;;;;;5.65;3.22;;;;;;;17.64;28.21;101568.03;4995088;28;21713;-70
2023/05/28 00:22:53;;;;;;;6.45;3.28;;;;;;;17.60;28.57;101553.63;5012258;28;20037;-69
2023/05/28 00:25:21;;;;;;;6.15;3.25;;;;;;;17.56;28.88;101560.53;5005648;28;20045;-69
2023/05/28 00:27:49;;;;;;;5.80;3.30;;;;;;;17.53;28.93;101560.84;5005996;28;20529;-69
2023/05/28 00:30:18;;;;;;;7.72;3.80;;;;;;;17.53;28.56;101562.75;5001673;28;20543;-69
2023/05/28 00:32:46;;;;;;;5.15;3.20;;;;;;;17.48;28.79;101567.91;5010438;28;20412;-70
2023/05/28 00:35:14;;;;;;;6.47;3.75;;;;;;;17.45;29.26;101560.78;5002545;28;20070;-69
2023/05/28 00:37:42;;;;;;;6.38;3.70;;;;;;;17.42;28.84;101563.88;4996975;28;20506;-69
2023/05/28 00:40:11;;;;;;;5.85;3.97;;;;;;;17.40;28.72;101560.41;5006664;28;20347;-69
2023/05/28 00:42:40;;;;;;;6.43;3.75;;;;;;;17.37;29.20;101560.75;5010656;28;20455;-69
2023/05/28 00:45:09;;;;;;;6.22;4.00;;;;;;;17.35;29.46;101562.78;5013490;28;20042;-69
2023/05/28 00:47:39;;;;;;;5.88;4.15;;;;;;;17.34;29.20;101552.75;5003767;28;20041;-69
2023/05/28 00:50:09;;;;;;;6.88;4.22;;;;;;;17.29;29.55;101553.25;4997828;28;20425;-69
2023/05/28 00:52:37;;;;;;;7.18;4.70;;;;;;;17.25;29.37;101550.94;5001808;28;20154;-69
2023/05/28 00:55:14;;;;;;;7.20;4.70;;;;;;;17.25;29.99;101559.25;4999269;28;20056;-69
2023/05/28 00:57:45;;;;;;;7.57;4.65;;;;;;;17.18;29.33;101552.63;5000496;28;20563;-69
2023/05/28 01:00:14;;;;;;;6.38;4.22;;;;;;;17.12;29.86;101554.16;5000633;28;20056;-69
2023/05/28 01:02:43;;;;;;;6.18;4.20;;;;;;;17.08;29.75;101552.72;5004018;28;20049;-70
2023/05/28 01:05:11;;;;;;;5.90;4.20;;;;;;;17.02;29.47;101545.06;5003652;28;20526;-69
2023/05/28 01:07:39;;;;;;;6.50;4.13;;;;;;;16.96;29.94;101548.44;5000805;28;20050;-69
2023/05/28 01:10:08;;;;;;;6.45;4.05;;;;;;;16.92;29.73;101549.78;4997233;28;20397;-71
2023/05/28 01:12:37;;;;;;;6.20;4.00;;;;;;;16.88;30.17;101548.38;5004256;28;20085;-69
2023/05/28 01:15:06;;;;;;;6.13;3.72;;;;;;;16.84;29.70;101546.94;5000036;28;20054;-69
2023/05/28 01:17:34;;;;;;;6.55;4.35;;;;;;;16.78;29.94;101553.97;5002575;28;20038;-69
2023/05/28 01:20:10;;;;;;;6.35;4.05;;;;;;;16.77;30.34;101543.06;4996323;28;20049;-69
2023/05/28 01:22:45;;;;;;;6.75;3.58;;;;;;;16.71;29.68;101552.00;5007284;28;20374;-70
2023/05/28 01:25:16;;;;;;;7.68;3.90;;;;;;;16.69;30.31;101557.69;5015252;28;20564;-69
2023/05/28 01:27:44;;;;;;;7.20;4.68;;;;;;;16.66;30.55;101555.22;4995956;28;20497;-69
2023/05/28 01:30:13;;;;;;;7.07;3.92;;;;;;;16.63;30.73;101548.13;5006143;28;20042;-68
2023/05/28 01:32:42;;;;;;;6.82;4.55;;;;;;;16.60;30.68;101548.44;5009734;28;20046;-69
2023/05/28 01:35:11;;;;;;;7.22;4.35;;;;;;;16.58;30.14;101552.38;5000781;28;20038;-69
2023/05/28 01:37:45;;;;;;;7.85;3.97;;;;;;;16.57;30.63;101551.53;5002608;28;20038;-69
2023/05/28 01:40:17;;;;;;;5.95;3.83;;;;;;;16.51;30.73;101546.63;4999852;28;20510;-69
2023/05/28 01:42:47;;;;;;;8.53;3.87;;;;;;;16.48;30.96;101538.66;5008178;28;20037;-69
2023/05/28 01:45:16;;;;;;;7.55;4.40;;;;;;;16.46;31.05;101543.47;5003142;28;20054;-70
2023/05/28 01:47:45;;;;;;;5.05;3.67;;;;;;;16.42;30.93;101530.97;4997145;28;20066;-69
2023/05/28 01:50:14;;;;;;;5.72;4.10;;;;;;;16.39;30.90;101534.06;5001586;28;20076;-70
2023/05/28 01:52:44;;;;;;;6.57;4.00;;;;;;;16.37;30.68;101532.47;5002584;28;20084;-70
2023/05/28 01:55:13;;;;;;;5.72;3.83;;;;;;;16.35;30.73;101534.53;5003357;28;20524;-70
2023/05/28 01:57:44;;;;;;;6.20;4.07;;;;;;;16.34;30.91;101527.25;5004598;28;20559;-70
2023/05/28 02:00:14;;;;;;;6.28;4.13;;;;;;;16.31;31.16;101524.81;5015705;28;20100;-70
2023/05/28 02:02:43;;;;;;;6.40;3.88;;;;;;;16.27;31.41;101532.53;5007969;28;20053;-70
2023/05/28 02:05:15;;;;;;;7.00;4.47;;;;;;;16.23;31.26;101522.84;5003897;28;20514;-70
2023/05/28 02:07:43;;;;;;;7.38;4.10;;;;;;;16.19;31.08;101522.28;5002627;28;20462;-70
2023/05/28 02:10:11;;;;;;;6.68;4.10;;;;;;;16.16;30.96;101518.94;4993752;28;20114;-69
2023/05/28 02:12:39;;;;;;;7.68;4.03;;;;;;;16.12;31.49;101523.00;5003656;28;20253;-69
2023/05/28 02:15:11;;;;;;;6.88;4.35;;;;;;;16.09;31.87;101513.13;4994294;28;20061;-69
2023/05/28 02:17:39;;;;;;;5.90;3.45;;;;;;;16.04;31.16;101514.63;4999038;28;20141;-69
2023/05/28 02:20:11;;;;;;;6.25;4.03;;;;;;;16.01;31.36;101514.94;5001397;28;20057;-69
2023/05/28 02:22:41;;;;;;;5.70;3.63;;;;;;;15.98;31.22;101512.50;5006949;28;20099;-69
2023/05/28 02:25:09;;;;;;;7.05;3.92;;;;;;;15.95;31.94;101512.78;4983431;28;20050;-70
2023/05/28 02:27:38;;;;;;;7.13;4.05;;;;;;;15.92;31.88;101510.34;4999492;28;20054;-69
2023/05/28 02:30:10;;;;;;;7.60;4.18;;;;;;;15.89;31.56;101508.75;5013621;28;20473;-69
2023/05/28 02:32:38;;;;;;;5.80;3.88;;;;;;;15.85;32.02;101510.06;5001433;28;20045;-70
2023/05/28 02:35:08;;;;;;;6.53;4.10;;;;;;;15.83;31.95;101510.25;5018070;28;20502;-69
2023/05/28 02:37:36;;;;;;;5.80;3.83;;;;;;;15.79;32.10;101516.22;5005813;28;20417;-68
2023/05/28 02:40:05;;;;;;;6.10;3.75;;;;;;;15.75;32.22;101518.44;4998259;28;20069;-69
2023/05/28 02:42:33;;;;;;;6.35;3.88;;;;;;;15.71;31.57;101516.09;4997338;28;20044;-69
2023/05/28 02:45:01;;;;;;;6.05;3.90;;;;;;;15.68;31.81;101517.28;5003730;28;20475;-69
2023/05/28 02:47:31;;;;;;;5.50;4.20;;;;;;;15.67;32.25;101520.22;5002386;28;20134;-68
2023/05/28 02:49:59;;;;;;;7.00;4.22;;;;;;;15.63;32.31;101513.25;4997641;28;20038;-69
2023/05/28 02:52:31;;;;;;;7.07;3.80;;;;;;;15.60;32.31;101510.78;5020843;28;20038;-69
2023/05/28 02:54:58;;;;;;;5.78;3.92;;;;;;;15.58;31.93;101521.97;5008950;28;20037;-68
2023/05/28 02:57:27;;;;;;;6.50;3.90;;;;;;;15.58;32.17;101515.59;5006627;28;20489;-69
2023/05/28 02:59:55;;;;;;;6.32;3.90;;;;;;;15.55;32.17;101521.41;5018916;28;20405;-69
2023/05/28 03:02:23;;;;;;;6.20;4.20;;;;;;;15.54;32.51;101514.13;5007791;28;20041;-69
2023/05/28 03:04:53;;;;;;;6.65;3.95;;;;;;;15.54;32.55;101516.91;5006426;28;20046;-71
2023/05/28 03:07:21;;;;;;;8.05;4.18;;;;;;;15.50;32.19;101519.13;5020443;28;20101;-69
2023/05/28 03:09:49;;;;;;;7.78;4.00;;;;;;;15.46;32.18;101514.91;4995660;28;20061;-70
2023/05/28 03:12:17;;;;;;;6.43;3.88;;;;;;;15.42;32.79;101510.72;5000554;28;20494;-69
2023/05/28 03:14:45;;;;;;;6.68;3.90;;;;;;;15.40;32.62;101515.50;5007314;28;20050;-70
2023/05/28 03:17:13;;;;;;;6.40;3.80;;;;;;;15.37;32.32;101522.19;5017514;28;20042;-70
2023/05/28 03:19:41;;;;;;;6.03;3.72;;;;;;;15.35;32.34;101518.69;5018629;28;20062;-70
2023/05/28 03:22:10;;;;;;;7.57;4.22;;;;;;;15.35;32.81;101521.44;5020628;28;20050;-70
2023/05/28 03:24:41;;;;;;;5.85;3.58;;;;;;;15.29;32.44;101519.28;5004786;28;20049;-70
2023/05/28 03:27:12;;;;;;;5.38;3.50;;;;;;;15.30;32.35;101517.38;5003503;28;20451;-70
2023/05/28 03:29:40;;;;;;;6.55;3.60;;;;;;;15.29;32.54;101526.66;4996669;28;20046;-69
2023/05/28 03:32:16;;;;;;;5.43;3.50;;;;;;;15.28;32.66;101527.69;5012990;28;20081;-70
2023/05/28 03:34:44;;;;;;;5.68;3.38;;;;;;;15.26;32.44;101525.06;5006513;28;20056;-70
2023/05/28 03:37:15;;;;;;;6.88;3.80;;;;;;;15.28;32.93;101522.16;5010288;28;20052;-69
2023/05/28 03:39:44;;;;;;;5.18;3.33;;;;;;;15.28;32.97;101523.03;4996863;28;20075;-69
2023/05/28 03:42:12;;;;;;;5.75;3.58;;;;;;;15.26;32.98;101513.19;4998209;28;20050;-69
2023/05/28 03:44:41;;;;;;;6.53;3.92;;;;;;;15.27;32.76;101517.66;5006522;28;20100;-69
2023/05/28 03:47:09;;;;;;;6.50;4.13;;;;;;;15.26;32.89;101521.47;5000052;28;20058;-69
2023/05/28 03:49:37;;;;;;;6.15;3.60;;;;;;;15.25;32.52;101520.59;5002725;28;20054;-69
2023/05/28 03:52:07;;;;;;;6.07;3.53;;;;;;;15.24;33.08;101523.50;5005293;28;20084;-69
2023/05/28 03:54:45;;;;;;;6.88;3.83;;;;;;;15.22;33.01;101525.53;5007131;28;20042;-69
2023/05/28 03:57:14;;;;;;;6.22;3.90;;;;;;;15.18;33.15;101533.22;5012385;28;20569;-69
2023/05/28 03:59:42;;;;;;;5.75;3.75;;;;;;;15.17;33.13;101537.03;5001971;28;20100;-69
2023/05/28 04:02:10;;;;;;;6.50;3.40;;;;;;;15.14;32.80;101540.94;4979164;28;1185928;-68
2023/05/28 04:04:38;;;;;;;5.80;3.40;;;;;;;15.14;33.04;101538.19;5008983;28;20049;-69
2023/05/28 04:07:07;;;;;;;6.78;3.92;;;;;;;15.14;33.02;101548.34;5007032;28;20398;-69
2023/05/28 04:09:35;;;;;;;7.88;3.65;;;;;;;15.13;32.80;101552.97;4994991;28;20049;-69
2023/05/28 04:12:04;;;;;;;5.57;3.55;;;;;;;15.16;33.26;101551.81;5004807;28;20084;-69
2023/05/28 04:14:32;;;;;;;6.45;3.50;;;;;;;15.13;32.81;101547.47;5026303;28;20054;-69
2023/05/28 04:17:00;;;;;;;6.63;3.90;;;;;;;15.14;33.33;101545.56;5017498;28;20416;-69
2023/05/28 04:19:28;;;;;;;6.38;3.60;;;;;;;15.12;33.22;101542.97;4991770;28;20133;-69
2023/05/28 04:21:56;;;;;;;5.60;3.80;;;;;;;15.12;33.09;101542.97;5004056;28;20050;-69
2023/05/28 04:24:24;;;;;;;5.95;3.65;;;;;;;15.11;33.41;101540.34;5005119;28;20132;-69
2023/05/28 04:26:53;;;;;;;6.38;3.63;;;;;;;15.11;33.55;101546.72;5016508;28;20391;-69
2023/05/28 04:29:24;;;;;;;5.53;3.38;;;;;;;15.13;33.16;101547.47;5004064;28;20093;-69
2023/05/28 04:31:52;;;;;;;6.25;3.70;;;;;;;15.10;33.54;101541.34;4997884;28;20135;-69
2023/05/28 04:34:20;;;;;;;6.57;3.42;;;;;;;15.11;33.74;101540.34;4998162;28;20076;-69
2023/05/28 04:36:51;;;;;;;6.35;3.70;;;;;;;15.09;33.76;101540.47;5001577;28;20066;-69
2023/05/28 04:39:20;;;;;;;6.43;3.95;;;;;;;15.10;33.86;101544.97;5002091;28;20042;-69
2023/05/28 04:41:49;;;;;;;6.68;3.83;;;;;;;15.11;33.78;101551.38;5003617;28;20425;-69
2023/05/28 04:44:17;;;;;;;5.43;3.50;;;;;;;15.13;33.90;101543.84;5004829;28;20080;-69
2023/05/28 04:46:47;;;;;;;6.35;3.60;;;;;;;15.15;33.75;101550.06;5017991;28;20272;-69
2023/05/28 04:49:15;;;;;;;5.78;3.78;;;;;;;15.13;33.61;101549.34;4999394;28;20042;-69
2023/05/28 04:51:43;;;;;;;6.15;4.07;;;;;;;15.14;33.96;101551.09;5000125;28;20491;-69
2023/05/28 04:54:11;;;;;;;6.70;4.05;;;;;;;15.14;34.15;101549.19;4999679;28;20053;-69
2023/05/28 04:56:38;;;;;;;7.88;3.92;;;;;;;15.16;33.77;101559.22;5004957;28;20501;-69
2023/05/28 04:59:09;;;;;;;6.30;4.13;;;;;;;15.18;33.91;101557.19;4999835;28;20072;-69
2023/05/28 05:01:38;;;;;;;7.07;4.03;;;;;;;15.19;34.29;101559.78;4998095;28;20076;-69
2023/05/28 05:04:09;;;;;;;5.82;3.67;;;;;;;15.24;34.14;101568.50;5000494;28;20128;-69
2023/05/28 05:06:37;;;;;;;5.95;3.42;;;;;;;15.28;34.14;101571.81;5015827;28;20042;-69
2023/05/28 05:09:07;;;;;;;7.53;3.70;;;;;;;15.33;34.67;101578.66;5004925;28;20260;-69
2023/05/28 05:11:35;;;;;;;6.70;4.30;;;;;;;15.41;34.20;101575.19;4998652;28;20050;-69
2023/05/28 05:14:05;;;;;;;6.53;3.78;;;;;;;15.53;34.43;101579.47;5005383;28;20087;-69
2023/05/28 05:16:33;;;;;;;6.70;4.15;;;;;;;15.65;34.86;101575.53;4999595;28;20050;-70
2023/05/28 05:19:01;;;;;;;5.25;3.72;;;;;;;15.80;34.86;101585.06;5002065;28;20048;-69
2023/05/28 05:21:32;;;;;;;6.82;3.50;;;;;;;15.96;34.40;101581.66;4998783;28;20046;-69
2023/05/28 05:24:00;;;;;;;5.43;3.50;;;;;;;16.11;34.29;101584.78;5000915;28;20053;-69
2023/05/28 05:26:28;;;;;;;7.53;3.80;;;;;;;16.25;33.86;101571.34;5003432;28;20168;-69
2023/05/28 05:28:56;;;;;;;6.00;3.33;;;;;;;16.42;34.29;101569.66;5001265;28;20070;-70
2023/05/28 05:31:24;;;;;;;7.75;3.67;;;;;;;16.56;33.80;101571.03;5001074;28;20053;-70
2023/05/28 05:33:52;;;;;;;5.95;3.30;;;;;;;16.70;34.00;101575.13;5002479;28;20076;-70
2023/05/28 05:36:32;;;;;;;6.47;3.47;;;;;;;16.87;33.59;101575.16;5005116;28;20137;-70
2023/05/28 05:39:26;;;;;;;5.30;3.15;;;;;;;17.00;33.37;101574.75;4998710;28;20056;-70
2023/05/28 05:42:26;;;;;;;5.40;3.50;;;;;;;17.16;33.07;101580.44;4957504;28;20054;-70
2023/05/28 05:44:55;;;;;;;6.10;3.20;;;;;;;17.33;33.57;101578.66;4997991;28;20088;-70
2023/05/28 05:47:22;;;;;;;6.18;3.50;;;;;;;17.48;33.21;101585.38;5000834;28;20050;-70
2023/05/28 05:49:51;;;;;;;4.72;3.17;;;;;;;17.63;33.46;101575.44;5000304;28;20034;-70
2023/05/28 05:52:21;;;;;;;5.85;3.20;;;;;;;17.81;33.32;101575.44;4988558;28;20413;-71
2023/05/28 05:54:53;;;;;;;4.43;2.90;;;;;;;17.93;33.04;101574.09;4995931;28;20077;-70
2023/05/28 05:57:22;;;;;;;5.40;3.60;;;;;;;18.09;32.68;101576.94;4997203;28;20666;-70
2023/05/28 05:59:50;;;;;;;4.97;3.40;;;;;;;18.25;32.50;101578.03;4998289;28;20041;-70
2023/05/28 06:02:18;;;;;;;5.20;3.42;;;;;;;18.40;32.47;101584.66;4998953;28;20050;-70
2023/05/28 06:04:46;;;;;;;4.95;3.50;;;;;;;18.54;32.51;101577.66;5000371;28;20111;-70
2023/05/28 06:07:22;;;;;;;5.55;3.25;;;;;;;18.71;32.44;101573.88;5000295;28;20054;-70
2023/05/28 06:10:13;;;;;;;6.07;3.55;;;;;;;18.80;32.11;101578.41;4968505;28;20050;-70
2023/05/28 06:12:42;;;;;;;5.60;3.13;;;;;;;18.96;31.68;101570.09;4999892;28;20493;-70
2023/05/28 06:15:11;;;;;;;5.43;3.53;;;;;;;19.11;31.74;101565.59;4996411;28;20116;-70
2023/05/28 06:17:39;;;;;;;5.15;3.20;;;;;;;19.23;31.59;101569.78;5001338;28;20056;-70
2023/05/28 06:20:08;;;;;;;6.05;3.80;;;;;;;19.39;31.57;101566.13;4997042;28;20061;-70
2023/05/28 06:22:39;;;;;;;5.68;3.13;;;;;;;19.51;31.44;101567.50;5023185;28;20049;-70
2023/05/28 06:25:08;;;;;;;4.28;2.97;;;;;;;19.63;31.22;101563.31;4991916;28;20042;-70
2023/05/28 06:27:36;;;;;;;6.47;3.20;;;;;;;19.75;30.79;101561.03;5012182;28;20042;-70
2023/05/28 06:30:05;;;;;;;4.60;3.10;;;;;;;19.89;31.01;101570.53;4994952;28;20062;-70
2023/05/28 06:32:33;;;;;;;5.15;3.28;;;;;;;20.00;30.96;101564.63;5002101;28;20428;-70
2023/05/28 06:35:01;;;;;;;5.75;3.45;;;;;;;20.12;30.59;101562.34;5013638;28;20521;-70
2023/05/28 06:37:29;;;;;;;4.65;2.90;;;;;;;20.24;30.41;101560.88;4996280;28;20050;-70
2023/05/28 06:39:59;;;;;;;5.55;3.15;;;;;;;20.38;30.36;101565.66;4998834;28;20057;-70
2023/05/28 06:42:27;;;;;;;4.40;2.97;;;;;;;20.47;30.20;101564.56;5000734;28;20100;-70
2023/05/28 06:45:19;;;;;;;6.35;3.30;;;;;;;20.59;30.23;101573.41;4999269;28;20064;-70
2023/05/28 06:47:47;;;;;;;5.15;3.10;;;;;;;20.73;29.96;101572.63;5001239;28;20060;-70
2023/05/28 06:50:17;;;;;;;4.88;3.30;;;;;;;20.84;29.86;101563.00;4996866;28;20039;-70
2023/05/28 06:52:47;;;;;;;5.50;3.08;;;;;;;20.95;29.67;101566.19;5018056;28;20050;-70
2023/05/28 06:55:17;;;;;;;5.03;2.90;;;;;;;21.09;29.39;101570.97;4998367;28;20050;-68
2023/05/28 06:57:59;;;;;;;4.75;3.05;;;;;;;21.20;29.53;101571.56;5001730;28;20056;-70
2023/05/28 07:00:47;;;;;;;4.97;2.95;;;;;;;21.33;29.30;101569.94;4998038;28;20058;-70
2023/05/28 07:03:38;;;;;;;4.05;2.65;;;;;;;21.46;29.06;101567.34;4996507;28;20057;-69
2023/05/28 07:06:20;;;;;;;4.97;3.38;;;;;;;21.60;28.71;101565.66;4994469;28;20070;-69
2023/05/28 07:08:48;;;;;;;5.97;3.30;;;;;;;21.74;28.50;101572.31;4996733;28;20034;-70
2023/05/28 07:11:17;;;;;;;4.75;2.97;;;;;;;21.87;28.26;101578.94;5016121;28;20046;-70
2023/05/28 07:13:47;;;;;;;6.60;2.58;;;;;;;21.97;28.25;101575.91;5001679;28;20050;-70
2023/05/28 07:16:16;;;;;;;5.35;2.97;;;;;;;22.06;27.75;101576.66;5016683;28;20054;-69
2023/05/28 07:18:44;;;;;;;6.00;3.35;;;;;;;22.15;27.59;101575.50;4997987;28;20165;-69
2023/05/28 07:21:12;;;;;;;5.93;3.20;;;;;;;22.21;27.51;101580.31;5016347;28;20050;-71
2023/05/28 07:23:44;;;;;;;;;;;;;;;21.97;28.35;101577.81;4999434;28;20216;-71
2023/05/28 07:26:13;;;;;;;4.68;2.60;;;;;;;22.31;27.84;101575.31;4995653;28;19983;-61
2023/05/28 07:28:42;;;;;;;4.78;2.60;;;;;;;22.44;27.90;101574.59;5006666;28;20285;-61
2023/05/28 07:31:10;;;;;;;4.00;2.80;;;;;;;22.49;27.74;101578.53;4997841;28;20045;-63
2023/05/28 07:33:38;;;;;;;5.13;2.78;;;;;;;22.55;27.38;101575.00;5003622;28;20034;-58
2023/05/28 07:36:06;;;;;;;4.55;2.80;;;;;;;22.63;27.36;101580.47;5002406;28;20049;-59
2023/05/28 07:38:36;;;;;;;6.00;3.10;;;;;;;22.70;26.95;101579.66;5019872;28;20077;-60
2023/05/28 07:41:05;;;;;;;5.10;2.70;;;;;;;22.76;27.39;101582.53;5009199;28;20076;-66
2023/05/28 07:43:39;;;;;;;4.05;2.45;;;;;;;22.83;27.19;101577.91;5010935;28;20045;-57
2023/05/28 07:46:17;;;;;;;4.78;2.90;;;;;;;22.92;27.06;101579.47;5021956;28;20046;-60
2023/05/28 07:48:49;;;;;;;7.20;2.90;;;;;;;22.98;26.81;101584.28;5001522;28;20174;-60
2023/05/28 07:51:40;;;;;;;5.47;2.60;;;;;;;23.04;26.66;101588.22;4996004;28;20049;-61
2023/05/28 07:54:12;;;;;;;4.45;2.33;;;;;;;23.12;26.35;101585.28;5013844;28;20498;-59
2023/05/28 07:56:41;;;;;;;3.60;2.15;;;;;;;23.16;26.13;101586.66;5002958;28;20314;-60
2023/05/28 07:59:14;;;;;;;4.13;2.30;;;;;;;23.21;25.50;101584.13;5004604;28;20378;-60
2023/05/28 08:01:46;;;;;;;4.88;2.30;;;;;;;23.28;25.12;101585.03;5000709;28;20068;-60
2023/05/28 08:04:14;;;;;;;4.43;2.28;;;;;;;23.31;24.70;101584.66;5001408;28;20050;-60
2023/05/28 08:06:43;;;;;;;4.88;2.40;;;;;;;23.35;25.01;101577.59;5016398;28;20073;-61
2023/05/28 08:09:15;;;;;;;5.18;2.67;;;;;;;23.38;24.60;101579.97;5018113;28;20149;-60
2023/05/28 08:11:43;;;;;;;5.18;2.38;;;;;;;23.42;24.41;101580.44;5024527;28;20042;-59
2023/05/28 08:14:11;;;;;;;4.15;2.55;;;;;;;23.46;24.86;101581.75;5005591;28;20046;-58
2023/05/28 08:16:42;;;;;;;4.88;2.60;;;;;;;23.48;24.35;101578.78;5021448;28;20111;-67
2023/05/28 08:19:20;;;;;;;4.95;2.58;;;;;;;23.52;24.11;101572.56;4996255;28;20046;-67
2023/05/28 08:21:52;;;;;;;3.58;2.33;;;;;;;23.53;24.00;101571.50;4998094;28;20045;-60
2023/05/28 08:24:21;;;;;;;4.32;2.60;;;;;;;23.57;24.13;101574.78;5004433;28;20046;-60
2023/05/28 08:26:50;;;;;;;5.20;2.80;;;;;;;23.60;24.29;101568.75;5004399;28;20053;-61
2023/05/28 08:29:19;;;;;;;4.72;2.90;;;;;;;23.63;24.21;101571.16;5018856;28;20050;-59
2023/05/28 08:31:54;;;;;;;4.57;2.58;;;;;;;23.65;24.29;101569.91;5019363;28;20045;-58
2023/05/28 08:34:33;;;;;;;5.07;2.88;;;;;;;23.70;24.38;101550.56;4989111;28;20072;-58
2023/05/28 08:37:01;;;;;;;6.70;2.80;;;;;;;23.70;24.49;101558.97;4999129;28;20044;-64
2023/05/28 08:39:34;;;;;;;4.68;2.75;;;;;;;23.75;24.45;101553.59;5003787;28;20164;-58
2023/05/28 08:42:02;;;;;;;5.20;2.65;;;;;;;23.80;24.43;101558.63;5002054;28;20045;-56
2023/05/28 08:44:31;;;;;;;5.00;2.83;;;;;;;23.81;24.11;101551.09;5000455;28;20061;-59
2023/05/28 08:47:00;;;;;;;4.75;2.67;;;;;;;23.85;24.04;101550.47;5020969;28;20066;-58
2023/05/28 08:50:02;;;;;;;5.28;2.88;;;;;;;23.89;23.32;101550.94;4996579;28;20069;-58
2023/05/28 08:52:36;;;;;;;4.47;2.72;;;;;;;23.89;24.00;101550.94;4996065;28;20390;-58
2023/05/28 08:55:05;;;;;;;5.97;2.97;;;;;;;23.92;24.17;101556.97;5000801;28;20723;-57
2023/05/28 08:57:39;;;;;;;4.15;2.50;;;;;;;23.92;24.13;101542.13;4994479;28;20040;-70
2023/05/28 09:00:11;;;;;;;5.70;2.95;;;;;;;23.98;23.88;101541.31;4986490;28;20038;-70
2023/05/28 09:03:07;;;;;;;4.60;2.88;;;;;;;24.00;23.74;101537.22;5012652;23;20639;-67
2023/05/28 09:05:38;;;;;;;5.53;2.67;;;;;;;24.04;24.13;101534.91;5006259;28;20512;-67
2023/05/28 09:08:08;;;;;;;5.97;2.92;;;;;;;24.05;24.20;101531.03;5008061;28;20489;-70
2023/05/28 09:10:38;;;;;;;4.93;2.85;;;;;;;24.10;24.20;101531.25;5008366;28;20133;-69
2023/05/28 09:13:06;;;;;;;5.97;2.83;;;;;;;24.14;24.33;101524.19;4991519;28;20069;-69
2023/05/28 09:15:36;;;;;;;5.60;3.10;;;;;;;24.16;24.04;101527.63;4991075;28;20106;-68
2023/05/28 09:18:06;;;;;;;6.10;3.07;;;;;;;24.19;24.23;101516.03;4991377;28;20046;-70
2023/05/28 09:20:36;;;;;;;4.50;2.95;;;;;;;24.26;24.11;101521.66;5006787;28;20481;-70
2023/05/28 09:23:07;;;;;;;5.03;2.85;;;;;;;24.32;23.75;101523.63;4991830;28;20532;-70
2023/05/28 09:26:00;;;;;;;4.45;2.55;;;;;;;24.34;24.08;101522.31;5008442;28;20070;-71
2023/05/28 09:28:33;;;;;;;6.78;3.35;;;;;;;24.37;23.90;101521.97;4991841;28;20073;-70
2023/05/28 09:31:05;;;;;;;4.82;3.00;;;;;;;24.44;23.30;101524.78;4990555;28;20068;-68
2023/05/28 09:33:33;;;;;;;;;;;;;;;24.14;24.07;101510.22;5009998;28;20057;-70
2023/05/28 09:36:02;;;;;;;4.70;2.53;;;;;;;24.46;23.65;101517.91;5007982;28;19943;-69
2023/05/28 09:38:40;;;;;;;4.85;2.53;;;;;;;24.56;23.02;101517.50;5009281;28;20042;-70
2023/05/28 09:41:19;;;;;;;5.30;2.92;;;;;;;24.61;23.21;101514.06;5008553;28;20049;-71
2023/05/28 09:43:47;;;;;;;4.05;2.70;;;;;;;24.60;22.95;101509.53;5009248;28;20038;-71
2023/05/28 09:46:15;;;;;;;5.72;3.13;;;;;;;24.65;23.18;101510.59;5007878;28;20053;-71
2023/05/28 09:48:44;;;;;;;4.03;2.53;;;;;;;24.69;22.42;101503.53;5008770;28;20100;-71
2023/05/28 09:51:14;;;;;;;4.22;2.75;;;;;;;24.72;22.44;101505.06;5007432;28;20045;-70
2023/05/28 09:53:45;;;;;;;5.47;3.10;;;;;;;24.75;22.81;101501.81;4991698;28;20514;-71
2023/05/28 09:56:13;;;;;;;4.75;2.85;;;;;;;24.75;22.43;101508.28;5008146;28;20406;-70
2023/05/28 09:58:46;;;;;;;5.43;2.75;;;;;;;24.81;22.44;101506.59;5008431;28;20045;-70
2023/05/28 10:01:16;;;;;;;5.47;2.78;;;;;;;24.81;22.29;101504.59;4990253;28;20045;-70
2023/05/28 10:03:47;;;;;;;4.72;2.53;;;;;;;24.85;22.20;101514.31;5008319;28;20464;-69
2023/05/28 10:06:17;;;;;;;6.15;2.75;;;;;;;24.87;21.98;101508.50;5007748;28;20058;-71
2023/05/28 10:08:51;;;;;;;4.78;2.65;;;;;;;24.89;21.00;101510.03;5008616;28;20054;-70
2023/05/28 10:11:22;;;;;;;5.18;2.90;;;;;;;24.89;21.73;101518.44;5007877;28;20050;-71
2023/05/28 10:13:51;;;;;;;5.57;3.05;;;;;;;24.88;21.81;101513.03;5008582;28;20409;-71
2023/05/28 10:16:20;;;;;;;5.75;3.35;;;;;;;24.90;21.88;101516.47;5007549;28;20141;-70
2023/05/28 10:18:49;;;;;;;5.20;2.92;;;;;;;24.91;21.59;101515.41;5008341;28;20046;-71
2023/05/28 10:21:20;;;;;;;5.82;2.83;;;;;;;24.93;21.55;101515.19;5007902;28;20046;-70
2023/05/28 10:23:50;;;;;;;5.65;2.63;;;;;;;24.93;21.75;101515.19;5008208;28;20041;-70
2023/05/28 10:26:18;;;;;;;4.47;2.58;;;;;;;24.95;21.72;101513.09;5007780;28;20484;-68
2023/05/28 10:28:46;;;;;;;5.18;2.97;;;;;;;24.97;21.81;101523.00;5008191;28;20042;-71
2023/05/28 10:31:22;;;;;;;4.38;2.90;;;;;;;25.04;22.03;101520.19;5007228;28;20125;-70
2023/05/28 10:33:50;;;;;;;5.10;2.60;;;;;;;25.03;21.57;101518.47;5008397;28;20045;-69
2023/05/28 10:36:18;;;;;;;4.43;2.50;;;;;;;25.07;21.51;101515.00;5007334;28;20045;-71
2023/05/28 10:38:59;;;;;;;4.47;2.50;;;;;;;25.13;21.09;101519.78;5008322;28;20056;-70
2023/05/28 10:41:32;;;;;;;4.00;2.65;;;;;;;25.18;21.27;101516.31;5007397;28;20125;-69
2023/05/28 10:44:06;;;;;;;4.55;2.60;;;;;;;25.22;21.35;101523.22;5008366;28;20070;-70
2023/05/28 10:46:38;;;;;;;5.05;2.65;;;;;;;25.26;21.09;101514.16;5006853;28;20062;-71
2023/05/28 10:49:09;;;;;;;5.28;2.65;;;;;;;25.25;21.34;101518.03;5008295;28;20118;-70
2023/05/28 10:51:52;;;;;;;5.53;2.67;;;;;;;25.31;20.40;101512.66;5007669;28;20050;-70
2023/05/28 10:54:41;;;;;;;5.45;3.00;;;;;;;25.32;20.34;101511.56;5008086;28;20046;-70
2023/05/28 10:57:14;;;;;;;6.57;2.72;;;;;;;25.37;20.47;101520.22;5007656;28;20054;-71
2023/05/28 10:59:47;;;;;;;4.25;2.38;;;;;;;25.39;20.11;101510.47;5008537;28;20038;-70
2023/05/28 11:02:19;;;;;;;5.28;2.85;;;;;;;25.41;20.29;101521.47;5007274;28;20064;-69
2023/05/28 11:04:51;;;;;;;5.65;2.88;;;;;;;25.42;20.30;101514.81;5008331;28;20092;-72
2023/05/28 11:07:20;;;;;;;5.13;2.67;;;;;;;25.42;20.72;101507.25;5006220;28;20092;-70
2023/05/28 11:09:51;;;;;;;4.45;2.78;;;;;;;25.46;20.39;101516.97;5007897;28;20073;-70
2023/05/28 11:12:21;;;;;;;3.45;2.42;;;;;;;25.46;20.65;101504.91;5008421;28;20137;-71
2023/05/28 11:14:49;;;;;;;5.35;2.67;;;;;;;25.49;20.56;101510.91;5010112;28;20038;-69
2023/05/28 11:17:17;;;;;;;4.07;2.47;;;;;;;25.52;20.58;101513.31;5011969;28;20073;-69
2023/05/28 11:19:46;;;;;;;4.68;2.42;;;;;;;25.57;20.48;101501.44;5011539;28;20567;-70
2023/05/28 11:22:16;;;;;;;4.25;2.58;;;;;;;25.60;20.14;101506.63;4984477;28;20397;-70
2023/05/28 11:24:58;;;;;;;5.75;2.80;;;;;;;25.65;19.72;101515.22;5011793;28;20149;-70
2023/05/28 11:27:27;;;;;;;;;;;;;;;25.34;20.79;101510.28;5012092;28;20077;-71
2023/05/28 11:29:56;;;;;;;4.43;2.40;;;;;;;25.65;20.19;101509.63;5009817;28;19921;-70
2023/05/28 11:32:25;;;;;;;4.80;2.50;;;;;;;25.70;19.60;101503.38;5011412;28;20042;-71
2023/05/28 11:34:54;;;;;;;4.88;2.60;;;;;;;25.73;19.55;101512.19;5010456;28;20049;-71
2023/05/28 11:37:27;;;;;;;4.97;2.40;;;;;;;25.75;18.89;101509.19;4994029;28;20058;-70
2023/05/28 11:39:57;;;;;;;4.18;2.30;;;;;;;25.74;19.35;101510.25;5010484;28;20306;-71
2023/05/28 11:42:26;;;;;;;6.47;2.58;;;;;;;25.72;19.43;101513.28;5011621;28;20521;-71